Decoded Metar for LFSB (MULHOUSE in FRANCE) (IATA:MLH) | Meteo·Mobile Aviation Weather
aviador You're here:

LFSB Decoded Metar

MULHOUSE in FRANCE
Report Time2019-09-23 09:00:00
UTC Time2019-09-23 09:07:44
Flight Rules vfr VFR
Wind250° at 06 kt
W.Decomp.*RWY 26: 5.9 kt HW 1.1 kt LCW
RWY 33: 0.9 kt HW 5.9 kt LCW
Visibility9999 m
Phenomena:N/A
Clouds:Few 018 Hf
Scattered 053 Hf
Broken 090 Hf
Expected CloudBase > 800 ft AGL from Temp-Dew spread
Ceiling9,000 ft
Temp15°C (ISA +2)
Dew Point13°C (88% RH)
AAT13.8°C
QNH1019 hPa
Density Alt1,099 ft
Elevation889 ft
Report Wrong Elevation
Raw Report
METAR LFSB 230900Z 25006KT 9999 FEW018 SCT053 BKN090 15/13 Q1019 NOSIG=

Extra information for LFSB:More info

Metar Taf Metar & Taf Last 4 Metars F.Rules Stats Wind Profile Meteogram Temp Stats Airport Information Weather charts Add Link Nearby VenuesMetar ALERT Operation Metar Decoded Social comments